Delaware County Johnson Field


Codes: KMIE/MIE
Name: Delaware County Johnson Field
City: Muncie
Country: United States
Elevation: 937 ft.
Wikipedia:

Photos at Delaware County Johnson Field


   Photos courtesy of SpottingLog. You can add your own sightings and photos by signing up for a free trial today.



No photos found.

Weather at Delaware County Johnson Field


Time (UTC)DescriptionTempratureWindCloud coverageVisibilityPressureHumidity
26-Jun-2024 00:00Light Rain26°C13 mph, W33%10000m1010hPa79%
26-Jun-2024 03:00Broken Clouds24°C9 mph, SW67%10000m1011hPa90%
26-Jun-2024 06:00Overcast Clouds20°C9 mph, W100%10000m1011hPa89%
26-Jun-2024 09:00Light Rain19°C4 mph, SW100%10000m1010hPa95%
26-Jun-2024 12:00Light Rain20°C7 mph, SW97%10000m1010hPa87%
26-Jun-2024 15:00Light Rain24°C11 mph, W100%10000m1010hPa78%
26-Jun-2024 18:00Light Rain22°C7 mph, W100%5645m1010hPa90%
26-Jun-2024 21:00Heavy Intensity Rain17°C7 mph, NE100%10000m1011hPa96%
27-Jun-2024 00:00Light Rain20°C4 mph, N85%10000m1010hPa83%
27-Jun-2024 03:00Clear Sky16°C4 mph, NW0%10000m1012hPa92%
27-Jun-2024 06:00Clear Sky16°C4 mph, NW0%10000m1012hPa95%
27-Jun-2024 09:00Clear Sky13°C7 mph, NW0%10000m1013hPa95%
27-Jun-2024 12:00Clear Sky15°C7 mph, N0%10000m1015hPa91%
27-Jun-2024 15:00Clear Sky20°C9 mph, N0%10000m1015hPa70%
27-Jun-2024 18:00Clear Sky23°C7 mph, NE1%10000m1014hPa59%
27-Jun-2024 21:00Few Clouds24°C9 mph, NE23%10000m1014hPa59%
28-Jun-2024 00:00Broken Clouds21°C4 mph, NE59%10000m1014hPa72%
28-Jun-2024 03:00Broken Clouds17°C7 mph, E83%10000m1014hPa82%
28-Jun-2024 06:00Scattered Clouds15°C7 mph, SE46%10000m1014hPa93%
28-Jun-2024 09:00Overcast Clouds14°C9 mph, SE100%10000m1014hPa91%
28-Jun-2024 12:00Broken Clouds16°C9 mph, SE73%10000m1014hPa85%
28-Jun-2024 15:00Overcast Clouds22°C11 mph, S96%10000m1012hPa68%
28-Jun-2024 18:00Overcast Clouds27°C13 mph, S96%10000m1011hPa56%
28-Jun-2024 21:00Overcast Clouds24°C7 mph, SW100%10000m1010hPa72%
29-Jun-2024 00:00Overcast Clouds23°C9 mph, SW100%10000m1010hPa81%
29-Jun-2024 03:00Overcast Clouds23°C11 mph, S100%10000m1010hPa78%
29-Jun-2024 06:00Overcast Clouds23°C16 mph, S92%10000m1009hPa84%
29-Jun-2024 09:00Moderate Rain23°C11 mph, SW100%6662m1009hPa93%
29-Jun-2024 12:00Heavy Intensity Rain23°C13 mph, SW100%10000m1010hPa97%
29-Jun-2024 15:00Light Rain23°C16 mph, SW100%10000m1012hPa93%
29-Jun-2024 18:00Light Rain26°C16 mph, W92%10000m1012hPa83%
29-Jun-2024 21:00Light Rain29°C13 mph, NW78%10000m1013hPa65%
30-Jun-2024 00:00Broken Clouds24°C11 mph, NW58%10000m1015hPa75%
30-Jun-2024 03:00Overcast Clouds19°C11 mph, NW89%10000m1018hPa84%
30-Jun-2024 06:00Broken Clouds15°C7 mph, NW80%10000m1020hPa92%
30-Jun-2024 09:00Clear Sky12°C7 mph, NW2%10000m1021hPa94%
30-Jun-2024 12:00Clear Sky14°C9 mph, NW1%10000m1023hPa84%
30-Jun-2024 15:00Broken Clouds17°C13 mph, N83%10000m1024hPa72%
30-Jun-2024 18:00Broken Clouds19°C11 mph, N60%10000m1024hPa65%
30-Jun-2024 21:00Clear Sky21°C11 mph, N1%10000m1023hPa61%